createdAt,value
2023-01-29T00:01:15.371Z,22.25
2023-01-29T00:03:48.664Z,20.48
2023-01-29T00:06:19.351Z,22.67
2023-01-29T00:08:50.126Z,22.15
2023-01-29T00:11:20.740Z,22.15
2023-01-29T00:13:51.822Z,19.65
2023-01-29T00:16:22.594Z,20.70
2023-01-29T00:18:55.883Z,19.80
2023-01-29T00:21:26.556Z,20.08
2023-01-29T00:23:58.425Z,15.02
2023-01-29T00:26:29.686Z,13.50
2023-01-29T00:29:00.808Z,13.77
2023-01-29T00:31:31.597Z,13.90
2023-01-29T00:34:04.889Z,17.00
2023-01-29T00:36:35.342Z,18.48
2023-01-29T00:39:11.951Z,15.18
2023-01-29T00:41:54.983Z,19.23
2023-01-29T00:44:37.934Z,19.17
2023-01-29T00:47:30.080Z,18.08
2023-01-29T00:50:03.851Z,15.75
2023-01-29T00:52:36.615Z,12.30
2023-01-29T00:55:08.729Z,13.90
2023-01-29T00:57:40.476Z,12.90
2023-01-29T01:00:15.467Z,12.38
2023-01-29T01:02:58.885Z,15.85
2023-01-29T01:05:32.896Z,18.55
2023-01-29T01:08:04.178Z,19.35
2023-01-29T01:10:34.126Z,16.65
2023-01-29T01:13:08.915Z,22.35
2023-01-29T01:15:41.555Z,16.90
2023-01-29T01:18:12.832Z,21.58
2023-01-29T01:20:46.084Z,21.67
2023-01-29T01:23:16.665Z,20.15
2023-01-29T01:25:47.251Z,22.33
2023-01-29T01:28:17.980Z,20.05
2023-01-29T01:30:48.611Z,22.10
2023-01-29T01:33:19.256Z,22.92
2023-01-29T01:35:52.490Z,18.25
2023-01-29T01:38:22.973Z,21.17
2023-01-29T01:40:54.155Z,19.05
2023-01-29T01:43:28.346Z,18.33
2023-01-29T01:45:59.768Z,16.15
2023-01-29T01:48:30.898Z,15.05
2023-01-29T01:51:08.831Z,13.40
2023-01-29T01:53:43.514Z,13.48
2023-01-29T01:56:18.748Z,11.93
2023-01-29T01:58:55.337Z,11.27
2023-01-29T02:01:33.447Z,11.80
2023-01-29T02:04:22.041Z,11.30
2023-01-29T02:07:09.650Z,13.75
2023-01-29T02:09:47.446Z,69.18
2023-01-29T02:12:20.703Z,19.13
2023-01-29T02:14:55.537Z,19.95
2023-01-29T02:17:26.732Z,12.57
2023-01-29T02:20:07.541Z,13.70
2023-01-29T02:23:17.512Z,12.40
2023-01-29T02:26:28.065Z,14.55
2023-01-29T02:29:22.740Z,11.82
2023-01-29T02:32:06.673Z,13.10
2023-01-29T02:34:57.753Z,14.20
2023-01-29T02:37:36.371Z,11.77
2023-01-29T02:40:15.923Z,12.80
2023-01-29T02:42:54.657Z,13.30
2023-01-29T02:45:39.789Z,12.73
2023-01-29T02:48:13.949Z,22.75
2023-01-29T02:50:51.305Z,17.50
2023-01-29T02:53:31.641Z,16.80
2023-01-29T02:56:07.501Z,17.58
2023-01-29T02:58:45.897Z,20.40
2023-01-29T03:01:25.016Z,19.88
2023-01-29T03:04:00.595Z,17.13
2023-01-29T03:06:35.944Z,15.20
2023-01-29T03:09:10.995Z,15.18
2023-01-29T03:11:45.286Z,11.43
2023-01-29T03:14:19.925Z,13.63
2023-01-29T03:16:55.812Z,15.98
2023-01-29T03:19:34.699Z,11.07
2023-01-29T03:22:11.016Z,12.48
2023-01-29T03:24:58.064Z,14.32
2023-01-29T03:27:45.143Z,13.90
2023-01-29T03:30:31.815Z,12.43
2023-01-29T03:33:21.455Z,12.57
2023-01-29T03:35:56.899Z,17.10
2023-01-29T03:38:32.528Z,12.68
2023-01-29T03:41:12.215Z,12.02
2023-01-29T03:43:55.136Z,12.40
2023-01-29T03:46:33.974Z,12.27
2023-01-29T03:49:15.420Z,12.32
2023-01-29T03:51:56.658Z,11.57
2023-01-29T03:54:35.147Z,11.27
2023-01-29T03:57:15.663Z,11.15
2023-01-29T03:59:55.838Z,10.55
2023-01-29T04:02:52.925Z,10.73
2023-01-29T04:05:31.172Z,9.40
2023-01-29T04:08:17.774Z,9.40
2023-01-29T04:10:53.091Z,9.35
2023-01-29T04:13:24.471Z,6.82
2023-01-29T04:16:01.172Z,10.23
2023-01-29T04:18:57.808Z,9.38
2023-01-29T04:21:37.427Z,10.32
2023-01-29T04:24:09.577Z,10.40
2023-01-29T04:26:53.623Z,9.88
2023-01-29T04:29:38.242Z,9.07
2023-01-29T04:32:18.485Z,7.00
2023-01-29T04:35:03.548Z,9.45
2023-01-29T04:37:44.245Z,7.07
2023-01-29T04:40:23.097Z,8.82
2023-01-29T04:43:02.944Z,9.43
2023-01-29T04:45:44.898Z,9.25
2023-01-29T04:48:23.409Z,8.10
2023-01-29T04:51:01.475Z,8.35
2023-01-29T04:53:43.336Z,8.32
2023-01-29T04:56:22.349Z,12.13
2023-01-29T04:58:58.351Z,7.07
2023-01-29T05:01:33.433Z,6.82
2023-01-29T05:04:07.742Z,7.75
2023-01-29T05:06:40.554Z,9.90
2023-01-29T05:09:17.227Z,10.45
2023-01-29T05:11:50.686Z,10.32
2023-01-29T05:14:22.948Z,9.45
2023-01-29T05:16:57.175Z,9.32
2023-01-29T05:19:27.788Z,9.43
2023-01-29T05:21:59.458Z,8.23
2023-01-29T05:24:32.589Z,8.07
2023-01-29T05:27:15.729Z,8.18
2023-01-29T05:29:49.186Z,7.35
2023-01-29T05:32:20.252Z,8.82
2023-01-29T05:34:50.699Z,8.10
2023-01-29T05:37:21.328Z,8.88
2023-01-29T05:39:54.799Z,8.73
2023-01-29T05:42:25.838Z,7.00
2023-01-29T05:44:56.575Z,7.15
2023-01-29T05:47:27.271Z,7.68
2023-01-29T05:49:57.928Z,8.25
2023-01-29T05:52:28.714Z,8.50
2023-01-29T05:55:01.871Z,9.77
2023-01-29T05:57:33.988Z,9.60
2023-01-29T06:00:04.866Z,11.68
2023-01-29T06:02:43.208Z,10.90
2023-01-29T06:05:14.145Z,12.65
2023-01-29T06:07:45.632Z,9.40
2023-01-29T06:10:21.576Z,11.68
2023-01-29T06:15:22.749Z,14.85
2023-01-29T06:17:53.417Z,10.90
2023-01-29T06:20:24.321Z,10.60
2023-01-29T06:22:54.860Z,11.00
2023-01-29T06:25:28.119Z,8.93
2023-01-29T06:27:59.634Z,9.60
2023-01-29T06:30:32.145Z,11.38
2023-01-29T06:33:03.165Z,10.75
2023-01-29T06:35:33.969Z,10.25
2023-01-29T06:38:04.688Z,10.65
2023-01-29T06:40:38.056Z,10.45
2023-01-29T06:43:08.605Z,11.63
2023-01-29T06:45:39.345Z,14.85
2023-01-29T06:48:10.238Z,12.35
2023-01-29T06:50:40.821Z,19.83
2023-01-29T06:53:11.418Z,19.10
2023-01-29T06:55:44.710Z,15.95
2023-01-29T06:58:15.662Z,22.05
2023-01-29T07:00:46.336Z,20.35
2023-01-29T07:03:17.423Z,22.42
2023-01-29T07:05:54.028Z,20.40
2023-01-29T07:08:24.590Z,25.02
2023-01-29T07:11:02.140Z,27.42
2023-01-29T07:13:33.008Z,27.00
2023-01-29T07:16:04.583Z,26.38
2023-01-29T07:18:35.538Z,27.65
2023-01-29T07:21:08.463Z,31.13
2023-01-29T07:23:39.261Z,29.90
2023-01-29T07:26:14.288Z,33.95
2023-01-29T07:28:44.899Z,26.42
2023-01-29T07:31:17.260Z,19.30
2023-01-29T07:33:48.256Z,9.18
2023-01-29T07:36:19.048Z,7.82
2023-01-29T07:38:52.952Z,7.18
2023-01-29T07:41:26.039Z,10.18
2023-01-29T07:43:56.492Z,13.85
2023-01-29T07:46:27.102Z,14.02
2023-01-29T07:48:57.614Z,14.38
2023-01-29T07:51:28.366Z,14.23
2023-01-29T07:53:58.911Z,13.13
2023-01-29T07:56:32.143Z,13.25
2023-01-29T07:59:02.605Z,14.15
2023-01-29T08:01:33.287Z,13.88
2023-01-29T08:04:03.780Z,15.02
2023-01-29T08:06:34.386Z,15.57
2023-01-29T08:09:05.023Z,12.65
2023-01-29T08:11:38.231Z,13.23
2023-01-29T08:14:09.560Z,13.93
2023-01-29T08:16:40.170Z,14.65
2023-01-29T08:19:10.701Z,11.57
2023-01-29T08:21:41.375Z,13.70
2023-01-29T08:24:12.025Z,14.23
2023-01-29T08:26:45.366Z,15.95
2023-01-29T08:29:16.196Z,15.85
2023-01-29T08:31:46.938Z,17.55
2023-01-29T08:34:17.498Z,18.83
2023-01-29T08:36:48.144Z,15.25
2023-01-29T08:39:18.751Z,14.85
2023-01-29T08:41:51.925Z,18.27
2023-01-29T08:44:22.451Z,16.73
2023-01-29T08:46:53.637Z,19.60
2023-01-29T08:49:24.216Z,19.85
2023-01-29T08:51:55.124Z,20.25
2023-01-29T08:54:25.804Z,12.55
2023-01-29T08:56:59.492Z,12.60
2023-01-29T08:59:30.150Z,14.15
2023-01-29T09:02:00.810Z,14.88
2023-01-29T09:04:31.349Z,16.17
2023-01-29T09:07:01.916Z,13.20
2023-01-29T09:09:32.709Z,12.68
2023-01-29T09:12:06.046Z,19.02
2023-01-29T09:14:36.689Z,20.00
2023-01-29T09:17:07.313Z,19.98
2023-01-29T09:19:37.942Z,24.13
2023-01-29T09:22:10.350Z,21.85
2023-01-29T09:24:41.693Z,17.17
2023-01-29T09:27:15.199Z,13.75
2023-01-29T09:29:45.931Z,14.55
2023-01-29T09:32:23.221Z,18.92
2023-01-29T09:35:02.366Z,16.05
2023-01-29T09:37:33.308Z,21.65
2023-01-29T09:40:03.902Z,13.80
2023-01-29T09:42:45.506Z,11.10
2023-01-29T09:45:19.675Z,13.30
2023-01-29T09:47:50.584Z,19.13
2023-01-29T09:50:25.175Z,20.00
2023-01-29T09:53:02.009Z,18.83
2023-01-29T09:55:36.732Z,19.98
2023-01-29T09:58:17.358Z,16.67
2023-01-29T10:00:57.580Z,23.70
2023-01-29T10:03:44.127Z,23.23
2023-01-29T10:06:27.624Z,23.55
2023-01-29T10:09:14.459Z,22.45
2023-01-29T10:11:58.193Z,26.60
2023-01-29T10:14:41.088Z,21.00
2023-01-29T10:17:41.709Z,25.10
2023-01-29T10:20:45.241Z,22.17
2023-01-29T10:23:25.434Z,22.60
2023-01-29T10:25:57.106Z,31.27
2023-01-29T10:28:33.395Z,37.75
2023-01-29T10:31:11.488Z,39.45
2023-01-29T10:34:02.475Z,28.60
2023-01-29T10:36:39.525Z,30.50
2023-01-29T10:39:19.778Z,36.35
2023-01-29T10:42:07.895Z,41.25
2023-01-29T10:44:49.342Z,43.40
2023-01-29T10:47:49.846Z,38.90
2023-01-29T10:50:37.669Z,35.95
2023-01-29T10:53:34.627Z,39.72
2023-01-29T10:56:23.087Z,29.73
2023-01-29T10:58:58.190Z,37.38
2023-01-29T11:01:29.207Z,27.80
2023-01-29T11:04:05.330Z,24.95
2023-01-29T11:06:38.537Z,24.15
2023-01-29T11:09:14.624Z,22.65
2023-01-29T11:11:49.296Z,21.58
2023-01-29T11:14:25.148Z,30.87
2023-01-29T11:16:56.342Z,31.90
2023-01-29T11:19:41.819Z,32.03
2023-01-29T11:22:18.222Z,28.35
2023-01-29T11:24:49.332Z,23.83
2023-01-29T11:27:26.866Z,29.00
2023-01-29T11:29:57.596Z,44.88
2023-01-29T11:32:31.565Z,32.25
2023-01-29T11:35:22.886Z,32.10
2023-01-29T11:37:53.416Z,30.63
2023-01-29T11:40:41.387Z,32.80
2023-01-29T11:43:36.385Z,37.47
2023-01-29T11:46:10.127Z,37.15
2023-01-29T11:48:46.704Z,29.73
2023-01-29T11:51:30.189Z,30.50
2023-01-29T11:54:02.997Z,38.10
2023-01-29T11:56:38.939Z,35.08
2023-01-29T11:59:09.789Z,31.95
2023-01-29T12:01:42.537Z,31.52
2023-01-29T12:04:22.482Z,36.63
2023-01-29T12:06:57.626Z,32.55
2023-01-29T12:09:32.550Z,33.90
2023-01-29T12:12:21.441Z,38.75
2023-01-29T12:15:07.797Z,36.72
2023-01-29T12:17:41.347Z,40.38
2023-01-29T12:20:18.630Z,25.17
2023-01-29T12:23:01.432Z,28.38
2023-01-29T12:25:43.689Z,23.05
2023-01-29T12:28:26.401Z,22.88
2023-01-29T12:31:15.005Z,25.38
2023-01-29T12:33:53.518Z,29.15
2023-01-29T12:36:31.385Z,20.75
2023-01-29T12:39:04.690Z,26.27
2023-01-29T12:41:45.811Z,28.75
2023-01-29T12:44:23.043Z,22.33
2023-01-29T12:46:57.119Z,20.48
2023-01-29T12:49:30.694Z,27.50
2023-01-29T12:52:06.000Z,34.53
2023-01-29T12:54:43.785Z,38.53
2023-01-29T12:57:24.365Z,32.53
2023-01-29T13:00:01.551Z,27.70
2023-01-29T13:02:40.196Z,45.85
2023-01-29T13:05:23.814Z,43.60
2023-01-29T13:08:00.583Z,33.53
2023-01-29T13:10:40.827Z,30.75
2023-01-29T13:13:19.640Z,34.65
2023-01-29T13:15:51.214Z,31.90
2023-01-29T13:18:40.950Z,37.20
2023-01-29T13:21:17.252Z,32.95
2023-01-29T13:23:50.264Z,36.88
2023-01-29T13:26:26.726Z,38.95
2023-01-29T13:28:57.759Z,40.05
2023-01-29T13:31:32.718Z,41.50
2023-01-29T13:34:11.327Z,207.10
2023-01-29T13:36:46.116Z,48.45
2023-01-29T13:39:26.647Z,30.85
2023-01-29T13:42:02.610Z,32.08
2023-01-29T13:44:36.611Z,26.63
2023-01-29T13:47:10.784Z,37.63
2023-01-29T13:49:44.878Z,39.25
2023-01-29T13:52:24.978Z,33.95
2023-01-29T13:55:00.689Z,35.03
2023-01-29T13:57:56.407Z,54.42
2023-01-29T14:01:01.479Z,35.72
2023-01-29T14:04:05.699Z,36.63
2023-01-29T14:06:51.694Z,55.72
2023-01-29T14:09:59.720Z,42.17
2023-01-29T14:12:51.220Z,44.13
2023-01-29T14:15:27.249Z,32.63
2023-01-29T14:18:05.908Z,27.35
2023-01-29T14:20:48.796Z,31.83
2023-01-29T14:23:30.673Z,33.47
2023-01-29T14:26:05.010Z,33.22
2023-01-29T14:28:38.686Z,23.40
2023-01-29T14:31:09.446Z,21.90
2023-01-29T14:33:43.607Z,35.63
2023-01-29T14:36:17.573Z,33.88
2023-01-29T14:38:53.450Z,23.80
2023-01-29T14:41:30.329Z,28.13
2023-01-29T14:44:30.736Z,29.52
2023-01-29T14:47:03.892Z,37.85
2023-01-29T14:49:53.269Z,25.67
2023-01-29T14:52:27.947Z,24.92
2023-01-29T14:55:04.168Z,21.50
2023-01-29T14:57:35.227Z,21.23
2023-01-29T15:00:09.847Z,18.88
2023-01-29T15:02:47.032Z,16.98
2023-01-29T15:05:22.690Z,19.73
2023-01-29T15:10:37.230Z,17.48
2023-01-29T15:13:17.528Z,32.35
2023-01-29T15:15:54.197Z,27.48
2023-01-29T15:18:34.643Z,29.92
2023-01-29T15:21:08.915Z,30.45
2023-01-29T15:23:40.969Z,32.00
2023-01-29T15:26:16.333Z,34.53
2023-01-29T15:28:51.840Z,36.40
2023-01-29T15:31:30.191Z,29.83
2023-01-29T15:34:09.823Z,33.45
2023-01-29T15:36:41.320Z,32.15
2023-01-29T15:39:31.903Z,34.65
2023-01-29T15:42:21.904Z,32.45
2023-01-29T15:44:52.939Z,24.20
2023-01-29T15:47:27.068Z,22.83
2023-01-29T15:50:00.902Z,24.25
2023-01-29T15:52:36.507Z,27.58
2023-01-29T15:57:41.022Z,33.20
2023-01-29T16:00:23.022Z,36.70
2023-01-29T16:02:53.795Z,42.45
2023-01-29T16:05:30.484Z,48.25
2023-01-29T16:08:02.815Z,43.75
2023-01-29T16:10:35.470Z,60.13
2023-01-29T16:13:06.890Z,52.83
2023-01-29T16:15:40.512Z,51.97
2023-01-29T16:18:24.500Z,55.08
2023-01-29T16:21:07.507Z,50.58
2023-01-29T16:23:44.217Z,55.70
2023-01-29T16:26:20.535Z,55.67
2023-01-29T16:28:51.707Z,62.72
2023-01-29T16:31:28.954Z,64.28
2023-01-29T16:34:01.352Z,100.72
2023-01-29T16:36:34.800Z,116.07
2023-01-29T16:39:09.051Z,71.68
2023-01-29T16:41:40.794Z,65.65
2023-01-29T16:44:36.260Z,64.65
2023-01-29T16:47:14.676Z,86.20
2023-01-29T16:49:52.778Z,81.25
2023-01-29T16:52:28.430Z,82.50
2023-01-29T16:55:18.726Z,77.28
2023-01-29T16:57:55.945Z,61.13
2023-01-29T17:00:28.957Z,44.72
2023-01-29T17:03:04.126Z,42.50
2023-01-29T17:05:37.855Z,39.60
2023-01-29T17:08:17.545Z,39.88
2023-01-29T17:10:51.641Z,39.63
2023-01-29T17:13:33.717Z,36.58
2023-01-29T17:16:06.391Z,37.28
2023-01-29T17:18:37.212Z,36.33
2023-01-29T17:21:08.500Z,42.50
2023-01-29T17:23:44.112Z,40.60
2023-01-29T17:26:18.095Z,51.30
2023-01-29T17:28:52.475Z,69.38
2023-01-29T17:31:24.349Z,50.83
2023-01-29T17:33:55.363Z,52.25
2023-01-29T17:36:26.662Z,52.50
2023-01-29T17:39:01.424Z,62.63
2023-01-29T17:41:34.140Z,63.60
2023-01-29T17:44:04.569Z,66.88
2023-01-29T17:46:35.143Z,71.25
2023-01-29T17:49:07.788Z,76.72
2023-01-29T17:51:38.620Z,79.45
2023-01-29T17:54:11.987Z,65.30
2023-01-29T17:56:42.764Z,74.90
2023-01-29T17:59:17.622Z,73.40
2023-01-29T18:01:48.696Z,58.88
2023-01-29T18:04:19.770Z,74.75
2023-01-29T18:06:52.307Z,66.13
2023-01-29T18:09:26.325Z,84.82
2023-01-29T18:11:57.380Z,93.85
2023-01-29T18:14:28.623Z,89.45
2023-01-29T18:16:59.492Z,74.38
2023-01-29T18:19:31.410Z,73.65
2023-01-29T18:22:02.587Z,71.88
2023-01-29T18:24:36.415Z,84.25
2023-01-29T18:27:07.462Z,79.68
2023-01-29T18:29:38.535Z,80.13
2023-01-29T18:32:10.403Z,91.50
2023-01-29T18:34:41.424Z,75.47
2023-01-29T18:37:13.148Z,84.65
2023-01-29T18:39:46.417Z,97.05
2023-01-29T18:42:17.851Z,112.57
2023-01-29T18:44:49.168Z,110.70
2023-01-29T18:47:20.155Z,135.45
2023-01-29T18:49:52.267Z,134.70
2023-01-29T18:52:23.019Z,123.72
2023-01-29T18:54:56.551Z,125.85
2023-01-29T18:58:27.076Z,115.28
2023-01-29T19:00:19.019Z,123.05
2023-01-29T19:02:51.019Z,107.97
2023-01-29T19:05:23.995Z,104.68
2023-01-29T19:07:55.396Z,102.35
2023-01-29T19:10:29.332Z,105.07
2023-01-29T19:13:00.099Z,107.30
2023-01-29T19:15:31.365Z,132.07
2023-01-29T19:18:02.902Z,112.90
2023-01-29T19:20:33.509Z,115.07
2023-01-29T19:23:04.397Z,116.38
2023-01-29T19:25:39.935Z,114.50
2023-01-29T19:28:10.773Z,113.30
2023-01-29T19:30:42.021Z,119.05
2023-01-29T19:33:14.022Z,111.03
2023-01-29T19:35:47.639Z,119.68
2023-01-29T19:38:21.611Z,108.70
2023-01-29T19:40:55.667Z,104.35
2023-01-29T19:43:26.651Z,119.13
2023-01-29T19:46:00.966Z,133.60
2023-01-29T19:48:31.956Z,131.90
2023-01-29T19:51:04.519Z,130.88
2023-01-29T19:53:36.004Z,126.63
2023-01-29T19:56:11.561Z,122.05
2023-01-29T19:58:43.269Z,121.68
2023-01-29T20:01:18.088Z,133.07
2023-01-29T20:03:49.542Z,142.80
2023-01-29T20:06:24.023Z,153.70
2023-01-29T20:08:55.428Z,159.38
2023-01-29T20:11:29.575Z,154.32
2023-01-29T20:14:01.987Z,161.45
2023-01-29T20:16:32.658Z,170.95
2023-01-29T20:19:13.427Z,178.18
2023-01-29T20:21:46.155Z,151.70
2023-01-29T20:24:17.179Z,131.93
2023-01-29T20:26:50.682Z,130.75
2023-01-29T20:29:21.564Z,144.05
2023-01-29T20:31:52.161Z,149.30
2023-01-29T20:34:23.046Z,117.60
2023-01-29T20:36:53.642Z,119.20
2023-01-29T20:39:24.433Z,113.78
2023-01-29T20:41:57.926Z,134.75
2023-01-29T20:44:29.735Z,113.40
2023-01-29T20:47:02.902Z,105.63
2023-01-29T20:49:34.338Z,102.22
2023-01-29T20:52:04.971Z,108.22
2023-01-29T20:54:35.699Z,95.47
2023-01-29T20:57:09.171Z,73.20
2023-01-29T20:59:39.705Z,69.57
2023-01-29T21:02:10.574Z,61.85
2023-01-29T21:04:43.049Z,45.30
2023-01-29T21:07:14.969Z,48.03
2023-01-29T21:09:46.450Z,42.58
2023-01-29T21:12:20.039Z,46.70
2023-01-29T21:14:50.782Z,44.22
2023-01-29T21:17:21.441Z,44.13
2023-01-29T21:19:52.279Z,40.22
2023-01-29T21:22:24.320Z,42.60
2023-01-29T21:24:55.213Z,34.08
2023-01-29T21:27:28.761Z,34.05
2023-01-29T21:29:59.706Z,36.10
2023-01-29T21:32:31.235Z,39.03
2023-01-29T21:35:02.232Z,39.53
2023-01-29T21:37:37.104Z,36.40
2023-01-29T21:40:09.773Z,37.10
2023-01-29T21:42:55.290Z,35.70
2023-01-29T21:45:25.988Z,32.83
2023-01-29T21:47:56.643Z,31.92
2023-01-29T21:50:27.870Z,32.55
2023-01-29T21:52:58.403Z,32.67
2023-01-29T21:55:29.045Z,39.90
2023-01-29T21:58:03.139Z,35.00
2023-01-29T22:00:33.952Z,36.80
2023-01-29T22:03:04.793Z,30.48
2023-01-29T22:05:41.658Z,29.45
2023-01-29T22:08:12.321Z,33.50
2023-01-29T22:10:43.122Z,31.63
2023-01-29T22:13:16.610Z,35.83
2023-01-29T22:15:47.379Z,30.38
2023-01-29T22:18:18.136Z,30.35
2023-01-29T22:20:48.933Z,35.25
2023-01-29T22:23:19.529Z,33.42
2023-01-29T22:25:50.820Z,27.67
2023-01-29T22:28:24.090Z,26.85
2023-01-29T22:30:54.758Z,27.08
2023-01-29T22:33:26.195Z,26.00
2023-01-29T22:35:57.285Z,24.27
2023-01-29T22:38:27.977Z,26.73
2023-01-29T22:41:00.172Z,24.70
2023-01-29T22:43:33.570Z,25.05
2023-01-29T22:46:04.053Z,24.95
2023-01-29T22:48:35.758Z,26.83
2023-01-29T22:51:14.176Z,26.63
2023-01-29T22:53:46.201Z,25.23
2023-01-29T22:56:16.729Z,27.52
2023-01-29T22:58:53.299Z,28.75
2023-01-29T23:01:25.661Z,26.95
2023-01-29T23:03:56.723Z,26.27
2023-01-29T23:06:27.731Z,33.92
2023-01-29T23:08:58.343Z,28.77
2023-01-29T23:11:29.077Z,28.45
2023-01-29T23:14:02.219Z,272.67
2023-01-29T23:16:32.840Z,27.67
2023-01-29T23:19:03.383Z,21.25
2023-01-29T23:21:34.336Z,25.17
2023-01-29T23:24:06.184Z,22.90
2023-01-29T23:26:49.403Z,22.70
2023-01-29T23:29:22.709Z,23.17
2023-01-29T23:31:55.513Z,25.67
2023-01-29T23:34:26.274Z,27.33
2023-01-29T23:36:57.084Z,26.27
2023-01-29T23:39:27.891Z,27.23
2023-01-29T23:41:58.763Z,24.13
2023-01-29T23:44:32.388Z,26.00
2023-01-29T23:47:03.059Z,23.13
2023-01-29T23:49:33.642Z,23.10
2023-01-29T23:52:04.306Z,20.27
2023-01-29T23:54:34.803Z,18.42
2023-01-29T23:57:05.335Z,21.25
2023-01-29T23:59:38.544Z,25.70
